Time;durP1;ratioP1;P1;durP2;ratioP2;P2;SDS_P1;SDS_P2;PMS_P1;PMS_P2;Temp;Humidity;BMP_temperature;BMP_pressure;BME280_temperature;BME280_humidity;BME280_pressure;Samples;Min_cycle;Max_cycle;Signal;HPM_P1;HPM_P2
2023/12/08 00:00:25;;;;;;;14.88;11.13;;;-0.20;99.90;;;;;;5053071;28;20214;-64
2023/12/08 00:02:52;;;;;;;21.38;12.15;;;-0.20;99.90;;;;;;5053261;28;20197;-63
2023/12/08 00:05:18;;;;;;;14.52;10.60;;;-0.20;99.90;;;;;;5053171;28;20225;-63
2023/12/08 00:07:45;;;;;;;16.38;11.30;;;-0.20;99.90;;;;;;5052817;28;20197;-64
2023/12/08 00:10:13;;;;;;;15.98;11.32;;;-0.20;99.90;;;;;;5053566;28;20201;-63
2023/12/08 00:12:40;;;;;;;18.27;12.00;;;-0.20;99.90;;;;;;5053566;28;20212;-64
2023/12/08 00:15:09;;;;;;;15.90;10.73;;;-0.20;99.90;;;;;;5053402;28;20676;-63
2023/12/08 00:17:36;;;;;;;15.98;11.27;;;-0.20;99.90;;;;;;5054146;28;20225;-64
2023/12/08 00:20:03;;;;;;;15.82;11.40;;;-0.20;99.90;;;;;;5052820;28;20550;-64
2023/12/08 00:22:30;;;;;;;19.40;12.13;;;-0.20;99.90;;;;;;5056314;28;20205;-63
2023/12/08 00:24:57;;;;;;;16.73;11.32;;;-0.20;99.90;;;;;;5053449;28;20588;-63
2023/12/08 00:27:25;;;;;;;16.60;11.48;;;-0.20;99.90;;;;;;5058626;28;20202;-63
2023/12/08 00:29:52;;;;;;;15.73;11.35;;;-0.20;99.90;;;;;;5060790;28;20691;-63
2023/12/08 00:32:18;;;;;;;19.58;11.80;;;-0.20;99.90;;;;;;5056796;28;20198;-63
2023/12/08 00:34:46;;;;;;;17.15;11.48;;;-0.20;99.90;;;;;;5056230;28;20237;-63
2023/12/08 00:37:12;;;;;;;18.58;12.35;;;-0.20;99.90;;;;;;5057308;28;20679;-63
2023/12/08 00:39:40;;;;;;;17.45;11.07;;;-0.10;99.90;;;;;;5064144;28;20208;-63
2023/12/08 00:42:07;;;;;;;15.32;10.88;;;-0.10;99.90;;;;;;5066196;28;20197;-62
2023/12/08 00:44:35;;;;;;;17.55;11.85;;;-0.10;99.90;;;;;;5058912;28;20221;-64
2023/12/08 00:47:02;;;;;;;17.17;10.40;;;-0.10;99.90;;;;;;5056689;28;20303;-64
2023/12/08 00:49:29;;;;;;;15.23;11.20;;;-0.10;99.90;;;;;;5057167;28;20209;-64
2023/12/08 00:51:55;;;;;;;14.80;10.50;;;-0.10;99.90;;;;;;5060119;28;20220;-64
2023/12/08 00:54:22;;;;;;;15.43;11.85;;;-0.10;99.90;;;;;;5065008;28;20221;-63
2023/12/08 00:56:49;;;;;;;16.95;11.10;;;-0.10;99.90;;;;;;5064172;28;20201;-64
2023/12/08 00:59:15;;;;;;;18.23;11.40;;;0.00;99.90;;;;;;5057503;28;20212;-63
2023/12/08 01:01:43;;;;;;;15.82;11.02;;;0.00;99.90;;;;;;5057062;28;20198;-63
2023/12/08 01:04:10;;;;;;;17.20;12.25;;;0.00;99.90;;;;;;5056161;28;20230;-63
2023/12/08 01:06:37;;;;;;;17.17;11.50;;;0.00;99.90;;;;;;5056285;28;20209;-64
2023/12/08 01:09:04;;;;;;;13.38;10.27;;;0.00;99.90;;;;;;5056312;28;20212;-63
2023/12/08 01:11:32;;;;;;;17.25;11.70;;;0.00;99.90;;;;;;5056319;28;20210;-64
2023/12/08 01:13:59;;;;;;;18.63;12.05;;;0.00;99.90;;;;;;5056160;28;20312;-63
2023/12/08 01:16:25;;;;;;;18.23;11.82;;;0.00;99.90;;;;;;5056322;28;20589;-63
2023/12/08 01:18:53;;;;;;;13.57;10.85;;;0.00;99.90;;;;;;5056036;28;20218;-64
2023/12/08 01:21:20;;;;;;;13.15;10.30;;;-0.10;99.90;;;;;;5055900;28;20201;-64
2023/12/08 01:23:47;;;;;;;17.80;11.23;;;-0.10;99.90;;;;;;5056023;28;20244;-64
2023/12/08 01:26:14;;;;;;;17.38;11.50;;;0.00;99.90;;;;;;5056044;28;20202;-64
2023/12/08 01:28:41;;;;;;;19.60;11.15;;;0.00;99.90;;;;;;5055886;28;20197;-65
2023/12/08 01:31:08;;;;;;;16.50;11.07;;;0.00;99.90;;;;;;5055956;28;20260;-64
2023/12/08 01:33:34;;;;;;;15.07;10.30;;;0.00;99.90;;;;;;5055276;28;20727;-64
2023/12/08 01:36:03;;;;;;;14.60;10.00;;;0.00;99.90;;;;;;5055895;28;20189;-64
2023/12/08 01:38:30;;;;;;;16.33;11.35;;;0.00;99.90;;;;;;5055682;28;20285;-64
2023/12/08 01:40:56;;;;;;;17.23;11.15;;;0.00;99.90;;;;;;5055024;28;20217;-64
2023/12/08 01:43:23;;;;;;;15.15;11.40;;;0.00;99.90;;;;;;5055761;28;20201;-64
2023/12/08 01:45:51;;;;;;;19.20;10.68;;;0.00;99.90;;;;;;5055705;28;20293;-63
2023/12/08 01:48:18;;;;;;;16.63;11.75;;;0.00;99.90;;;;;;5055841;28;20198;-64
2023/12/08 01:50:44;;;;;;;19.88;12.20;;;0.00;99.90;;;;;;5055924;28;20206;-63
2023/12/08 01:53:12;;;;;;;17.65;12.02;;;0.00;99.90;;;;;;5055648;28;20205;-65
2023/12/08 01:55:39;;;;;;;16.15;11.40;;;0.00;99.90;;;;;;5055605;28;20301;-64
2023/12/08 01:58:07;;;;;;;17.00;10.93;;;0.00;99.90;;;;;;5055621;28;20217;-64
2023/12/08 02:00:34;;;;;;;14.50;10.90;;;0.00;99.90;;;;;;5055539;28;20202;-62
2023/12/08 02:03:01;;;;;;;15.82;11.25;;;0.00;99.90;;;;;;5055909;28;20214;-64
2023/12/08 02:05:28;;;;;;;15.63;10.93;;;0.00;99.90;;;;;;5055199;28;20678;-63
2023/12/08 02:07:55;;;;;;;15.30;11.27;;;0.00;99.90;;;;;;5055538;28;20208;-64
2023/12/08 02:10:23;;;;;;;14.65;9.75;;;0.00;99.90;;;;;;5055626;28;20225;-64
2023/12/08 02:12:50;;;;;;;15.30;10.43;;;-0.10;99.90;;;;;;5055445;28;20205;-63
2023/12/08 02:15:17;;;;;;;19.70;12.23;;;-0.10;99.90;;;;;;5055902;28;20232;-63
2023/12/08 02:17:45;;;;;;;12.85;9.88;;;-0.10;99.90;;;;;;5054713;28;20713;-63
2023/12/08 02:20:13;;;;;;;14.52;10.95;;;0.00;99.90;;;;;;5055297;28;20205;-63
2023/12/08 02:22:40;;;;;;;15.98;10.82;;;0.00;99.90;;;;;;5054996;28;20202;-63
2023/12/08 02:25:09;;;;;;;16.13;11.10;;;0.00;99.90;;;;;;5055010;28;20222;-64
2023/12/08 02:27:36;;;;;;;17.80;12.32;;;0.00;99.90;;;;;;5054932;28;20214;-63
2023/12/08 02:30:03;;;;;;;15.90;11.93;;;0.10;99.90;;;;;;5054889;28;20212;-63
2023/12/08 02:32:35;;;;;;;19.25;12.38;;;0.10;99.90;;;;;;5054848;28;20201;-63
2023/12/08 02:35:04;;;;;;;14.60;11.60;;;0.10;99.90;;;;;;5057857;28;20248;-64
2023/12/08 02:37:35;;;;;;;19.17;11.80;;;0.10;99.90;;;;;;5071893;28;20202;-64
2023/12/08 02:40:04;;;;;;;18.55;11.30;;;0.20;99.90;;;;;;5071604;28;20196;-63
2023/12/08 02:42:32;;;;;;;16.35;10.82;;;0.20;99.90;;;;;;5062387;28;20270;-63
2023/12/08 02:44:59;;;;;;;14.85;9.98;;;0.20;99.90;;;;;;5065612;28;20218;-64
2023/12/08 02:47:26;;;;;;;16.77;10.80;;;0.20;99.90;;;;;;5059725;28;20672;-64
2023/12/08 02:49:53;;;;;;;14.23;10.45;;;0.20;99.90;;;;;;5054413;28;20229;-63
2023/12/08 02:52:20;;;;;;;16.60;11.25;;;0.20;99.90;;;;;;5053719;28;20718;-63
2023/12/08 02:54:46;;;;;;;16.55;10.38;;;0.20;99.90;;;;;;5055485;28;20229;-63
2023/12/08 02:57:13;;;;;;;17.08;12.60;;;0.30;99.90;;;;;;5054881;28;20572;-64
2023/12/08 02:59:41;;;;;;;16.40;10.60;;;0.30;99.90;;;;;;5056746;28;20217;-64
2023/12/08 03:02:08;;;;;;;19.73;11.40;;;0.30;99.90;;;;;;5057292;28;20205;-64
2023/12/08 03:04:35;;;;;;;20.17;10.43;;;0.30;99.90;;;;;;5058808;28;20218;-64
2023/12/08 03:07:01;;;;;;;14.63;9.85;;;0.30;99.90;;;;;;5060461;28;20206;-64
2023/12/08 03:09:28;;;;;;;15.60;11.40;;;0.40;99.90;;;;;;5057542;28;20215;-63
2023/12/08 03:11:55;;;;;;;15.70;9.98;;;0.40;99.90;;;;;;5054885;28;20209;-62
2023/12/08 03:14:21;;;;;;;17.10;11.98;;;0.40;99.90;;;;;;5056562;28;20218;-65
2023/12/08 03:16:50;;;;;;;18.20;12.13;;;0.40;99.90;;;;;;5057542;28;20202;-64
2023/12/08 03:19:16;;;;;;;17.80;11.57;;;0.50;99.90;;;;;;5055368;28;20228;-63
2023/12/08 03:21:43;;;;;;;17.50;12.30;;;0.50;99.90;;;;;;5054079;28;20201;-63
2023/12/08 03:24:10;;;;;;;14.43;10.40;;;0.50;99.90;;;;;;5053805;28;20233;-63
2023/12/08 03:26:36;;;;;;;14.48;10.20;;;0.50;99.90;;;;;;5053701;28;20198;-63
2023/12/08 03:29:03;;;;;;;16.73;10.30;;;0.50;99.90;;;;;;5054048;28;20212;-63
2023/12/08 03:31:32;;;;;;;14.80;11.20;;;0.50;99.90;;;;;;5053816;28;20283;-64
2023/12/08 03:34:00;;;;;;;15.05;11.20;;;0.60;99.90;;;;;;5078681;22;20245;-63
2023/12/08 03:36:26;;;;;;;18.90;12.30;;;0.50;99.90;;;;;;5058460;28;20205;-63
2023/12/08 03:38:53;;;;;;;16.40;11.02;;;0.50;99.90;;;;;;5055633;28;20229;-63
2023/12/08 03:41:20;;;;;;;19.35;12.32;;;0.50;99.90;;;;;;5055752;28;20212;-63
2023/12/08 03:43:47;;;;;;;14.43;10.85;;;0.50;99.90;;;;;;5055460;28;20370;-63
2023/12/08 03:46:13;;;;;;;17.88;12.48;;;0.50;99.90;;;;;;5055751;28;20216;-64
2023/12/08 03:48:40;;;;;;;17.33;12.70;;;0.50;99.90;;;;;;5055013;28;20197;-63
2023/12/08 03:51:08;;;;;;;19.10;11.80;;;0.50;99.90;;;;;;5055726;28;20228;-62
2023/12/08 03:53:35;;;;;;;18.13;13.40;;;0.50;99.90;;;;;;5059222;28;20202;-64
2023/12/08 03:56:02;;;;;;;20.60;12.73;;;0.50;99.90;;;;;;5059128;28;20208;-62
2023/12/08 03:58:29;;;;;;;19.42;13.20;;;0.50;99.90;;;;;;5054425;28;20313;-62
2023/12/08 04:00:56;;;;;;;18.23;11.73;;;0.50;99.90;;;;;;5054946;28;20206;-62
2023/12/08 04:03:23;;;;;;;18.52;12.55;;;0.50;99.90;;;;;;5054050;28;20206;-63
2023/12/08 04:05:50;;;;;;;20.42;12.20;;;0.50;99.90;;;;;;5054140;28;20221;-63
2023/12/08 04:08:18;;;;;;;18.55;12.55;;;0.50;99.90;;;;;;5053328;28;20202;-63
2023/12/08 04:12:42;;;;;;;22.02;12.60;;;0.60;99.90;;;;;;5091071;27;20546;-63
2023/12/08 04:15:10;;;;;;;19.02;12.25;;;0.60;99.90;;;;;;5090958;28;20701;-63
2023/12/08 04:17:37;;;;;;;18.80;13.00;;;0.60;99.90;;;;;;5090856;28;20674;-63
2023/12/08 04:20:05;;;;;;;15.95;12.43;;;0.60;99.90;;;;;;5090834;28;20200;-64
2023/12/08 04:22:32;;;;;;;18.00;12.48;;;0.70;99.90;;;;;;5102052;28;20196;-63
2023/12/08 04:24:59;;;;;;;17.08;11.90;;;0.70;99.90;;;;;;5100656;28;20312;-63
2023/12/08 04:27:25;;;;;;;17.00;12.18;;;0.70;99.90;;;;;;5095848;28;20228;-62
2023/12/08 04:29:53;;;;;;;19.35;13.25;;;0.70;99.90;;;;;;5091910;28;20213;-62
2023/12/08 04:32:20;;;;;;;15.13;11.38;;;0.70;99.90;;;;;;5090810;28;20226;-62
2023/12/08 04:34:47;;;;;;;16.98;12.50;;;0.70;99.90;;;;;;5091125;28;20349;-63
2023/12/08 04:37:14;;;;;;;20.30;12.32;;;0.80;99.90;;;;;;5093164;28;20275;-63
2023/12/08 04:39:40;;;;;;;19.92;14.15;;;0.80;99.90;;;;;;5093863;28;20212;-62
2023/12/08 04:42:08;;;;;;;18.42;13.98;;;0.80;99.90;;;;;;5092742;28;20197;-62
2023/12/08 04:44:35;;;;;;;18.30;13.35;;;0.80;99.90;;;;;;5090728;28;20721;-62
2023/12/08 04:47:04;;;;;;;17.13;12.60;;;0.80;99.90;;;;;;5091589;28;20196;-64
2023/12/08 04:49:31;;;;;;;17.02;12.93;;;0.80;99.90;;;;;;5093186;28;20281;-63
2023/12/08 04:51:57;;;;;;;18.42;12.70;;;0.80;99.90;;;;;;5094052;28;20224;-63
2023/12/08 04:54:24;;;;;;;17.20;13.07;;;0.80;99.90;;;;;;5096308;28;20235;-62
2023/12/08 04:56:51;;;;;;;20.27;13.68;;;0.80;99.90;;;;;;5094703;28;20201;-63
2023/12/08 04:59:17;;;;;;;18.05;12.93;;;0.80;99.90;;;;;;5090154;28;20211;-63
2023/12/08 05:01:44;;;;;;;20.50;14.80;;;0.80;99.90;;;;;;5087422;22;20229;-62
2023/12/08 05:04:12;;;;;;;22.80;15.27;;;0.80;99.90;;;;;;5049304;28;20201;-62
2023/12/08 05:06:39;;;;;;;19.48;14.70;;;0.80;99.90;;;;;;5049057;28;20657;-62
2023/12/08 05:09:06;;;;;;;23.42;14.68;;;0.80;99.90;;;;;;5049044;28;20206;-62
2023/12/08 05:11:32;;;;;;;20.85;15.32;;;0.80;99.90;;;;;;5049028;28;20228;-62
2023/12/08 05:13:59;;;;;;;19.27;14.27;;;0.80;99.90;;;;;;5048952;28;20208;-62
2023/12/08 05:16:26;;;;;;;21.70;14.93;;;0.80;99.90;;;;;;5049289;28;20656;-62
2023/12/08 05:18:52;;;;;;;19.25;14.20;;;0.80;99.90;;;;;;5049202;28;20208;-63
2023/12/08 05:21:21;;;;;;;21.80;14.48;;;0.80;99.90;;;;;;5048851;28;20591;-62
2023/12/08 05:23:48;;;;;;;22.35;14.77;;;0.80;99.90;;;;;;5037260;28;20218;-62
2023/12/08 05:26:14;;;;;;;23.23;14.27;;;0.80;99.90;;;;;;5035848;28;20203;-62
2023/12/08 05:28:41;;;;;;;18.90;13.60;;;0.80;99.90;;;;;;5037134;28;20214;-62
2023/12/08 05:31:08;;;;;;;19.67;14.07;;;0.80;99.90;;;;;;5037206;28;20236;-63
2023/12/08 05:33:34;;;;;;;19.55;13.05;;;0.90;99.90;;;;;;5037693;28;20201;-61
2023/12/08 05:36:01;;;;;;;19.05;14.15;;;0.90;99.90;;;;;;5039886;28;20208;-63
2023/12/08 05:38:30;;;;;;;15.70;12.45;;;0.90;99.90;;;;;;5040950;28;20664;-61
2023/12/08 05:40:57;;;;;;;19.23;13.02;;;0.90;99.90;;;;;;5038867;28;20708;-62
2023/12/08 05:43:23;;;;;;;16.02;13.20;;;0.90;99.90;;;;;;5037013;28;20210;-62
2023/12/08 05:45:50;;;;;;;20.38;13.18;;;0.90;99.90;;;;;;5036130;28;20213;-61
2023/12/08 05:48:17;;;;;;;18.70;13.52;;;0.90;99.90;;;;;;5035561;28;20198;-63
2023/12/08 05:50:43;;;;;;;18.38;13.52;;;0.90;99.90;;;;;;5035108;28;20213;-62
2023/12/08 05:53:10;;;;;;;16.63;12.40;;;0.90;99.90;;;;;;5035411;28;20209;-61
2023/12/08 05:55:38;;;;;;;19.20;12.95;;;1.00;99.90;;;;;;5035029;28;20675;-62
2023/12/08 05:58:05;;;;;;;20.65;12.77;;;1.00;99.90;;;;;;5035377;28;20381;-61
2023/12/08 06:00:33;;;;;;;17.40;11.10;;;1.00;99.90;;;;;;5035024;28;20202;-61
2023/12/08 06:03:00;;;;;;;16.17;11.60;;;1.00;99.90;;;;;;5034818;28;20229;-60
2023/12/08 06:05:27;;;;;;;17.60;12.63;;;1.00;99.90;;;;;;5035018;28;20202;-61
2023/12/08 06:07:53;;;;;;;17.95;11.75;;;1.00;99.90;;;;;;5035065;28;20288;-61
2023/12/08 06:10:22;;;;;;;16.45;12.18;;;1.00;99.90;;;;;;5034842;28;20213;-61
2023/12/08 06:12:50;;;;;;;20.33;13.52;;;1.00;99.90;;;;;;5034564;28;20226;-61
2023/12/08 06:15:17;;;;;;;19.25;12.43;;;1.00;99.90;;;;;;5034838;28;20221;-61
2023/12/08 06:17:43;;;;;;;19.17;12.93;;;1.10;99.90;;;;;;5034842;28;20209;-62
2023/12/08 06:20:12;;;;;;;17.55;12.38;;;1.10;99.90;;;;;;5035084;28;20198;-61
2023/12/08 06:22:39;;;;;;;18.70;11.77;;;1.10;99.90;;;;;;5034433;28;20222;-61
2023/12/08 06:25:06;;;;;;;15.35;11.15;;;1.10;99.90;;;;;;5038256;28;20206;-61
2023/12/08 06:27:34;;;;;;;15.05;10.45;;;1.10;99.90;;;;;;5039465;28;20213;-61
2023/12/08 06:30:02;;;;;;;16.05;11.82;;;1.10;99.90;;;;;;5038248;28;20203;-62
2023/12/08 06:32:29;;;;;;;12.23;8.63;;;1.10;99.90;;;;;;5035218;28;20218;-60
2023/12/08 06:34:56;;;;;;;14.65;10.05;;;1.10;99.90;;;;;;5035066;28;20213;-61
2023/12/08 06:37:23;;;;;;;13.45;9.93;;;1.10;99.90;;;;;;5035217;28;20202;-62
2023/12/08 06:39:49;;;;;;;12.68;10.00;;;1.20;99.90;;;;;;5034676;28;20571;-60
2023/12/08 06:42:16;;;;;;;13.35;9.45;;;1.20;99.90;;;;;;5034982;28;20230;-63
2023/12/08 06:44:43;;;;;;;15.23;10.75;;;1.20;99.90;;;;;;5034586;28;20206;-62
2023/12/08 06:47:11;;;;;;;14.70;10.05;;;1.20;99.90;;;;;;5034842;28;20213;-62
2023/12/08 06:49:38;;;;;;;13.25;8.98;;;1.20;99.90;;;;;;5034390;28;20205;-60
2023/12/08 06:52:05;;;;;;;16.70;9.82;;;1.20;99.90;;;;;;5034155;28;20601;-61
2023/12/08 06:54:32;;;;;;;12.48;9.13;;;1.30;99.90;;;;;;5034609;28;20683;-63
2023/12/08 06:56:59;;;;;;;12.23;8.82;;;1.30;99.90;;;;;;5034811;28;20207;-62
2023/12/08 06:59:26;;;;;;;13.07;9.70;;;1.20;99.90;;;;;;5034369;28;20217;-62
2023/12/08 07:01:52;;;;;;;12.50;8.85;;;1.30;99.90;;;;;;5033789;28;20777;-61
2023/12/08 07:04:20;;;;;;;12.35;9.30;;;1.30;99.90;;;;;;5034127;28;20270;-61
2023/12/08 07:06:47;;;;;;;16.08;9.85;;;1.30;99.90;;;;;;5033639;28;20210;-63
2023/12/08 07:09:14;;;;;;;13.63;9.68;;;1.40;99.90;;;;;;5034263;28;20202;-61
2023/12/08 07:11:41;;;;;;;12.80;9.25;;;1.40;99.90;;;;;;5033768;28;20255;-62
2023/12/08 07:14:07;;;;;;;13.23;9.90;;;1.40;99.90;;;;;;5033758;28;20206;-61
2023/12/08 07:16:34;;;;;;;10.82;8.40;;;1.40;99.90;;;;;;5033633;28;20206;-62
2023/12/08 07:19:01;;;;;;;14.35;9.77;;;1.40;99.90;;;;;;5033263;28;20692;-63
2023/12/08 07:21:29;;;;;;;14.38;10.60;;;1.40;99.90;;;;;;5033030;28;20314;-61
2023/12/08 07:23:56;;;;;;;10.48;8.38;;;1.40;99.90;;;;;;5033695;28;20206;-62
2023/12/08 07:26:22;;;;;;;11.52;8.80;;;1.40;99.90;;;;;;5034075;28;20252;-61
2023/12/08 07:28:49;;;;;;;10.80;8.70;;;1.40;99.90;;;;;;5033709;28;20209;-61
2023/12/08 07:31:16;;;;;;;12.40;10.02;;;1.40;99.90;;;;;;5033313;28;20713;-62
2023/12/08 07:33:44;;;;;;;11.82;9.13;;;1.40;99.90;;;;;;5033395;28;20207;-62
2023/12/08 07:36:11;;;;;;;14.68;10.85;;;1.40;99.90;;;;;;5034487;28;20656;-62
2023/12/08 07:38:39;;;;;;;13.85;10.40;;;1.30;99.90;;;;;;5034912;28;20198;-61
2023/12/08 07:41:07;;;;;;;15.57;11.40;;;1.30;99.90;;;;;;5034648;28;20289;-61
2023/12/08 07:43:35;;;;;;;17.75;10.10;;;1.30;99.90;;;;;;5034116;28;20557;-60
2023/12/08 07:46:02;;;;;;;14.30;10.50;;;1.30;99.90;;;;;;5033987;28;20206;-61
2023/12/08 07:48:28;;;;;;;16.13;10.40;;;1.30;99.90;;;;;;5034087;28;20207;-61
2023/12/08 07:50:56;;;;;;;15.60;11.43;;;1.30;99.90;;;;;;5033211;28;20233;-61
2023/12/08 07:53:23;;;;;;;18.67;11.32;;;1.30;99.90;;;;;;5033358;28;20283;-62
2023/12/08 07:55:51;;;;;;;18.23;11.30;;;1.30;99.90;;;;;;5034086;28;20202;-62
2023/12/08 07:58:18;;;;;;;17.02;12.02;;;1.30;99.90;;;;;;5034284;28;20206;-60
2023/12/08 08:00:44;;;;;;;17.00;10.85;;;1.30;99.90;;;;;;5034481;28;20198;-61
2023/12/08 08:03:11;;;;;;;19.20;12.27;;;1.30;99.90;;;;;;5033991;28;20687;-61
2023/12/08 08:05:38;;;;;;;18.13;12.40;;;1.30;99.90;;;;;;5033379;28;20198;-61
2023/12/08 08:08:05;;;;;;;22.75;11.77;;;1.30;99.90;;;;;;5033026;28;20202;-60
2023/12/08 08:10:32;;;;;;;14.73;9.73;;;1.30;99.90;;;;;;5033104;28;20202;-61
2023/12/08 08:13:01;;;;;;;18.40;10.82;;;1.30;99.90;;;;;;5032858;28;20272;-61
2023/12/08 08:15:27;;;;;;;19.65;12.15;;;1.20;99.90;;;;;;5033192;28;20198;-61
2023/12/08 08:17:54;;;;;;;20.42;13.57;;;1.20;99.90;;;;;;5033518;28;20285;-61
2023/12/08 08:20:21;;;;;;;18.17;11.63;;;1.20;99.90;;;;;;5032806;28;20206;-61
2023/12/08 08:22:48;;;;;;;21.67;12.35;;;1.20;99.90;;;;;;5032700;28;20218;-61
2023/12/08 08:25:15;;;;;;;19.73;12.25;;;1.20;99.90;;;;;;5033068;28;20202;-61
2023/12/08 08:27:41;;;;;;;19.02;12.23;;;1.20;99.90;;;;;;5032937;28;20579;-62
2023/12/08 08:30:11;;;;;;;22.38;12.93;;;1.30;99.90;;;;;;5032707;28;20205;-61
2023/12/08 08:32:37;;;;;;;17.92;12.15;;;1.20;99.90;;;;;;5032808;28;20222;-60
2023/12/08 08:35:05;;;;;;;15.18;11.18;;;1.30;99.90;;;;;;5034457;28;20205;-59
2023/12/08 08:37:31;;;;;;;16.15;11.45;;;1.30;99.90;;;;;;5035967;28;20228;-61
2023/12/08 08:39:58;;;;;;;18.27;10.90;;;1.40;99.90;;;;;;5036628;28;20217;-59
2023/12/08 08:42:25;;;;;;;15.75;10.85;;;1.40;99.90;;;;;;5033514;28;20223;-59
2023/12/08 08:44:52;;;;;;;16.30;11.63;;;1.40;99.90;;;;;;5032943;28;20212;-59
2023/12/08 08:47:20;;;;;;;16.10;11.00;;;1.40;99.90;;;;;;5032800;28;20203;-59
2023/12/08 08:49:46;;;;;;;18.85;11.88;;;1.40;99.90;;;;;;5032860;28;20293;-59
2023/12/08 08:52:13;;;;;;;16.40;11.35;;;1.40;99.90;;;;;;5032686;28;20234;-59
2023/12/08 08:54:40;;;;;;;16.73;11.02;;;1.50;99.90;;;;;;5032840;28;20681;-61
2023/12/08 08:57:07;;;;;;;13.20;10.38;;;1.40;99.90;;;;;;5032852;28;20297;-60
2023/12/08 08:59:34;;;;;;;17.60;11.25;;;1.40;99.90;;;;;;5036805;28;20208;-59
2023/12/08 09:02:00;;;;;;;14.77;11.00;;;1.40;99.90;;;;;;5036127;28;20676;-61
2023/12/08 09:04:28;;;;;;;15.85;11.05;;;1.40;99.90;;;;;;5036928;28;20214;-59
2023/12/08 09:06:56;;;;;;;19.35;12.25;;;1.40;99.90;;;;;;5036237;28;20688;-61
2023/12/08 09:09:22;;;;;;;17.10;11.05;;;1.40;99.90;;;;;;5036084;28;20206;-61
2023/12/08 09:11:49;;;;;;;19.13;11.50;;;1.40;99.90;;;;;;5036267;28;20233;-60
2023/12/08 09:14:16;;;;;;;18.25;12.00;;;1.30;99.90;;;;;;5037640;28;20199;-60
2023/12/08 09:16:43;;;;;;;18.08;11.65;;;1.30;99.90;;;;;;5036046;28;20253;-60
2023/12/08 09:19:10;;;;;;;19.30;11.68;;;1.30;99.90;;;;;;5036418;28;20202;-60
2023/12/08 09:21:38;;;;;;;20.02;14.38;;;1.30;99.90;;;;;;5036854;28;20224;-60
2023/12/08 09:24:05;;;;;;;19.60;12.40;;;1.30;99.90;;;;;;5037145;28;20202;-61
2023/12/08 09:26:32;;;;;;;16.67;11.23;;;1.40;99.90;;;;;;5036775;28;20696;-63
2023/12/08 09:28:59;;;;;;;18.65;12.43;;;1.40;99.90;;;;;;5037356;28;20258;-62
2023/12/08 09:31:26;;;;;;;18.27;13.35;;;1.40;99.90;;;;;;5037810;28;20233;-62
2023/12/08 09:33:53;;;;;;;19.40;12.80;;;1.50;99.90;;;;;;5037571;28;20232;-63
2023/12/08 09:36:20;;;;;;;16.77;12.15;;;1.50;99.90;;;;;;5036891;28;20697;-65
2023/12/08 09:38:48;;;;;;;19.77;13.20;;;1.50;99.90;;;;;;5036459;28;20209;-64
2023/12/08 09:41:16;;;;;;;22.92;12.90;;;1.50;99.90;;;;;;5036753;28;20233;-61
2023/12/08 09:43:49;;;;;;;19.13;13.25;;;1.60;99.90;;;;;;5036445;28;20289;-61
2023/12/08 09:46:16;;;;;;;23.85;13.43;;;1.60;99.90;;;;;;5037130;28;20274;-61
2023/12/08 09:48:45;;;;;;;19.92;13.18;;;1.50;99.90;;;;;;5036635;28;20209;-60
2023/12/08 09:51:14;;;;;;;18.15;13.35;;;1.40;99.90;;;;;;5036538;28;20226;-60
2023/12/08 09:53:42;;;;;;;18.10;13.95;;;1.40;99.90;;;;;;5035585;28;20227;-60
2023/12/08 09:56:12;;;;;;;22.05;13.80;;;1.30;99.90;;;;;;5035771;28;20206;-59
2023/12/08 09:58:41;;;;;;;19.50;12.35;;;1.30;99.90;;;;;;5035381;28;20702;-60
2023/12/08 10:01:13;;;;;;;22.52;14.35;;;1.20;99.90;;;;;;5035305;28;20234;-60
2023/12/08 10:03:40;;;;;;;19.90;13.35;;;1.20;99.90;;;;;;5035952;28;20210;-60
2023/12/08 10:06:08;;;;;;;21.90;14.98;;;1.20;99.90;;;;;;5035217;28;20209;-61
2023/12/08 10:08:36;;;;;;;22.02;14.68;;;1.20;99.90;;;;;;5035601;28;20225;-60
2023/12/08 10:11:05;;;;;;;17.48;11.70;;;1.20;99.90;;;;;;5035307;28;20330;-60
2023/12/08 10:13:33;;;;;;;18.85;12.88;;;1.30;99.90;;;;;;5035537;28;20288;-59
2023/12/08 10:16:00;;;;;;;17.35;11.98;;;1.20;99.90;;;;;;5035687;28;20279;-59
2023/12/08 10:18:28;;;;;;;20.52;14.10;;;1.30;99.90;;;;;;5037403;28;20202;-60
2023/12/08 10:21:13;;;;;;;21.27;13.35;;;1.30;99.90;;;;;;5035748;28;20202;-60
2023/12/08 10:23:40;;;;;;;17.50;12.20;;;1.30;99.90;;;;;;5036169;28;20182;-60
2023/12/08 10:26:08;;;;;;;18.85;12.90;;;1.30;99.90;;;;;;5034900;28;20684;-60
2023/12/08 10:28:36;;;;;;;21.25;13.27;;;1.40;99.90;;;;;;5034996;28;20228;-60
2023/12/08 10:31:04;;;;;;;19.73;12.90;;;1.40;99.90;;;;;;5034874;28;20230;-59
2023/12/08 10:33:31;;;;;;;18.58;12.52;;;1.40;99.90;;;;;;5034130;28;20222;-60
2023/12/08 10:35:58;;;;;;;20.77;12.15;;;1.40;99.90;;;;;;5035341;28;20194;-60
2023/12/08 10:38:25;;;;;;;16.17;11.60;;;1.40;99.90;;;;;;5034662;28;20289;-60
2023/12/08 10:40:53;;;;;;;18.05;12.23;;;1.40;99.90;;;;;;5034117;28;20202;-60
2023/12/08 10:43:23;;;;;;;17.88;11.63;;;1.40;99.90;;;;;;5034533;28;20198;-61
2023/12/08 10:45:52;;;;;;;14.40;10.55;;;1.40;99.90;;;;;;5035276;28;20533;-60
2023/12/08 10:48:20;;;;;;;15.10;11.50;;;1.40;99.90;;;;;;5035625;28;20691;-60
2023/12/08 10:50:48;;;;;;;19.20;12.05;;;1.40;99.90;;;;;;5034414;28;20205;-60
2023/12/08 10:53:18;;;;;;;14.02;10.45;;;1.50;99.90;;;;;;5035096;28;20230;-60
2023/12/08 10:55:50;;;;;;;17.17;11.43;;;1.50;99.90;;;;;;5035430;28;20214;-61
2023/12/08 10:58:22;;;;;;;14.38;10.77;;;1.50;99.90;;;;;;5038259;28;20194;-62
2023/12/08 11:00:52;;;;;;;16.73;10.07;;;1.60;99.90;;;;;;5036500;28;20206;-61
2023/12/08 11:03:21;;;;;;;17.00;12.52;;;1.60;99.90;;;;;;5034353;28;20183;-62
2023/12/08 11:05:56;;;;;;;18.83;12.68;;;1.60;99.90;;;;;;5034483;28;20213;-62
2023/12/08 11:08:23;;;;;;;19.17;11.48;;;1.70;99.90;;;;;;5034431;28;20591;-60
2023/12/08 11:10:53;;;;;;;14.52;10.07;;;1.70;99.90;;;;;;5033933;28;20206;-60
2023/12/08 11:13:26;;;;;;;19.20;11.70;;;1.70;99.90;;;;;;5034045;28;20695;-60
2023/12/08 11:16:13;;;;;;;15.02;11.35;;;1.70;99.90;;;;;;5034167;28;20558;-61
2023/12/08 11:18:40;;;;;;;20.80;11.40;;;1.70;99.90;;;;;;5033466;28;20671;-61
2023/12/08 11:21:09;;;;;;;14.35;10.80;;;1.70;99.90;;;;;;5033582;28;20317;-60
2023/12/08 11:23:36;;;;;;;19.42;11.98;;;1.70;99.90;;;;;;5033666;28;20214;-60
2023/12/08 11:26:11;;;;;;;16.42;11.10;;;1.80;99.90;;;;;;5033309;28;20691;-60
2023/12/08 11:28:47;;;;;;;11.98;9.30;;;1.80;99.90;;;;;;5033553;28;20189;-60
2023/12/08 11:31:31;;;;;;;14.30;10.75;;;1.80;99.90;;;;;;5033917;28;20226;-60
2023/12/08 11:34:03;;;;;;;16.88;11.80;;;1.80;99.90;;;;;;5034057;28;20213;-60
2023/12/08 11:36:29;;;;;;;16.50;10.63;;;1.80;99.90;;;;;;5033483;28;20655;-60
2023/12/08 11:38:56;;;;;;;15.95;9.90;;;1.80;99.90;;;;;;5034045;28;20202;-63
2023/12/08 11:41:24;;;;;;;15.65;10.63;;;1.90;99.90;;;;;;5033283;28;20222;-63
2023/12/08 11:43:52;;;;;;;14.32;11.05;;;1.90;99.90;;;;;;5033781;28;20194;-62
2023/12/08 11:46:21;;;;;;;13.65;9.80;;;1.90;99.90;;;;;;5033787;28;20822;-63
2023/12/08 11:48:52;;;;;;;15.45;10.50;;;2.00;99.90;;;;;;5034444;28;20249;-64
2023/12/08 11:51:19;;;;;;;16.27;9.73;;;2.00;99.90;;;;;;5034342;28;20234;-63
2023/12/08 11:53:54;;;;;;;14.80;10.82;;;2.10;99.90;;;;;;5033478;28;20222;-63
2023/12/08 11:56:42;;;;;;;18.83;10.95;;;2.10;99.90;;;;;;5033557;28;20219;-61
2023/12/08 11:59:09;;;;;;;15.10;10.90;;;2.10;99.90;;;;;;5033100;28;20715;-60
2023/12/08 12:01:42;;;;;;;16.27;11.35;;;2.10;99.90;;;;;;5033403;28;20612;-59
2023/12/08 12:04:09;;;;;;;14.85;9.80;;;2.10;99.90;;;;;;5033488;28;20195;-59
2023/12/08 12:06:37;;;;;;;16.40;10.63;;;2.10;99.90;;;;;;5033476;28;20212;-58
2023/12/08 12:09:04;;;;;;;16.17;11.02;;;2.10;99.90;;;;;;5033372;28;20225;-60
2023/12/08 12:11:34;;;;;;;16.77;11.25;;;2.10;99.90;;;;;;5033334;28;20770;-60
2023/12/08 12:14:01;;;;;;;15.95;10.07;;;2.20;99.90;;;;;;5033461;28;20214;-60
2023/12/08 12:16:28;;;;;;;16.75;11.38;;;2.20;99.90;;;;;;5032956;28;20264;-60
2023/12/08 12:18:56;;;;;;;14.60;10.80;;;2.20;99.90;;;;;;5033229;28;20210;-62
2023/12/08 12:21:23;;;;;;;15.48;10.30;;;2.30;99.90;;;;;;5033003;28;20688;-62
2023/12/08 12:23:50;;;;;;;12.43;10.20;;;2.30;99.90;;;;;;5032957;28;20209;-62
2023/12/08 12:26:20;;;;;;;23.42;12.07;;;2.30;99.90;;;;;;5033400;28;20213;-61
2023/12/08 12:28:47;;;;;;;17.52;11.85;;;2.30;99.90;;;;;;5032988;28;20190;-62
2023/12/08 12:31:14;;;;;;;12.80;10.15;;;2.30;99.90;;;;;;5032675;28;20218;-62
2023/12/08 12:33:43;;;;;;;15.43;11.02;;;2.20;99.90;;;;;;5034722;28;20214;-62
2023/12/08 12:36:13;;;;;;;14.30;10.93;;;2.20;99.90;;;;;;5037804;28;20542;-62
2023/12/08 12:38:42;;;;;;;23.08;11.80;;;2.20;99.90;;;;;;5038141;28;20198;-61